sensor_id;sensor_type;location;lat;lon;timestamp;temperature;humidity
29431;DHT22;16404;49.902;10.074;2023-02-11T00:00:10;3.40;64.10
29431;DHT22;16404;49.902;10.074;2023-02-11T00:02:54;3.50;64.10
29431;DHT22;16404;49.902;10.074;2023-02-11T00:05:38;3.60;64.00
29431;DHT22;16404;49.902;10.074;2023-02-11T00:08:23;3.70;63.80
29431;DHT22;16404;49.902;10.074;2023-02-11T00:11:12;3.70;63.80
29431;DHT22;16404;49.902;10.074;2023-02-11T00:14:03;3.80;63.80
29431;DHT22;16404;49.902;10.074;2023-02-11T00:16:48;3.70;63.90
29431;DHT22;16404;49.902;10.074;2023-02-11T00:19:32;3.80;64.10
29431;DHT22;16404;49.902;10.074;2023-02-11T00:22:18;3.80;64.20
29431;DHT22;16404;49.902;10.074;2023-02-11T00:25:02;3.90;64.30
29431;DHT22;16404;49.902;10.074;2023-02-11T00:27:47;4.00;64.10
29431;DHT22;16404;49.902;10.074;2023-02-11T00:30:32;4.20;63.80
29431;DHT22;16404;49.902;10.074;2023-02-11T00:33:16;4.40;63.30
29431;DHT22;16404;49.902;10.074;2023-02-11T00:36:05;4.50;62.90
29431;DHT22;16404;49.902;10.074;2023-02-11T00:38:51;4.70;62.50
29431;DHT22;16404;49.902;10.074;2023-02-11T00:41:36;4.80;61.90
29431;DHT22;16404;49.902;10.074;2023-02-11T00:44:21;4.80;62.20
29431;DHT22;16404;49.902;10.074;2023-02-11T00:47:05;4.60;62.30
29431;DHT22;16404;49.902;10.074;2023-02-11T00:49:50;4.70;62.50
29431;DHT22;16404;49.902;10.074;2023-02-11T00:52:34;4.80;62.30
29431;DHT22;16404;49.902;10.074;2023-02-11T00:55:19;4.90;62.00
29431;DHT22;16404;49.902;10.074;2023-02-11T00:58:04;4.90;61.90
29431;DHT22;16404;49.902;10.074;2023-02-11T01:00:49;5.00;61.90
29431;DHT22;16404;49.902;10.074;2023-02-11T01:03:33;5.10;61.90
29431;DHT22;16404;49.902;10.074;2023-02-11T01:06:18;5.10;61.60
29431;DHT22;16404;49.902;10.074;2023-02-11T01:09:02;5.20;61.40
29431;DHT22;16404;49.902;10.074;2023-02-11T01:11:47;5.20;61.30
29431;DHT22;16404;49.902;10.074;2023-02-11T01:14:32;5.30;61.30
29431;DHT22;16404;49.902;10.074;2023-02-11T01:17:16;5.30;61.30
29431;DHT22;16404;49.902;10.074;2023-02-11T01:20:05;5.30;61.20
29431;DHT22;16404;49.902;10.074;2023-02-11T01:22:50;5.30;61.30
29431;DHT22;16404;49.902;10.074;2023-02-11T01:25:35;5.30;61.20
29431;DHT22;16404;49.902;10.074;2023-02-11T01:28:27;5.30;61.30
29431;DHT22;16404;49.902;10.074;2023-02-11T01:31:11;5.30;61.30
29431;DHT22;16404;49.902;10.074;2023-02-11T01:33:56;5.30;61.30
29431;DHT22;16404;49.902;10.074;2023-02-11T01:36:40;5.30;61.40
29431;DHT22;16404;49.902;10.074;2023-02-11T01:39:26;5.20;61.60
29431;DHT22;16404;49.902;10.074;2023-02-11T01:42:18;5.10;61.60
29431;DHT22;16404;49.902;10.074;2023-02-11T01:48:33;5.10;61.90
29431;DHT22;16404;49.902;10.074;2023-02-11T01:51:45;5.00;62.00
29431;DHT22;16404;49.902;10.074;2023-02-11T01:54:34;5.00;62.40
29431;DHT22;16404;49.902;10.074;2023-02-11T01:57:41;5.00;62.40
29431;DHT22;16404;49.902;10.074;2023-02-11T02:00:38;5.10;62.30
29431;DHT22;16404;49.902;10.074;2023-02-11T02:03:23;5.20;62.00
29431;DHT22;16404;49.902;10.074;2023-02-11T02:06:49;5.30;61.60
29431;DHT22;16404;49.902;10.074;2023-02-11T02:09:45;5.30;61.40
29431;DHT22;16404;49.902;10.074;2023-02-11T02:12:31;5.20;61.50
29431;DHT22;16404;49.902;10.074;2023-02-11T02:18:21;5.20;61.70
29431;DHT22;16404;49.902;10.074;2023-02-11T02:21:50;5.30;61.50
29431;DHT22;16404;49.902;10.074;2023-02-11T02:30:47;5.30;61.10
29431;DHT22;16404;49.902;10.074;2023-02-11T02:37:15;5.30;61.20
29431;DHT22;16404;49.902;10.074;2023-02-11T02:40:04;5.30;60.90
29431;DHT22;16404;49.902;10.074;2023-02-11T02:42:50;5.30;60.90
29431;DHT22;16404;49.902;10.074;2023-02-11T02:45:35;5.30;60.90
29431;DHT22;16404;49.902;10.074;2023-02-11T02:48:28;5.30;60.90
29431;DHT22;16404;49.902;10.074;2023-02-11T03:06:39;5.40;61.50
29431;DHT22;16404;49.902;10.074;2023-02-11T03:09:39;5.40;60.80
29431;DHT22;16404;49.902;10.074;2023-02-11T03:12:27;5.40;61.00
29431;DHT22;16404;49.902;10.074;2023-02-11T03:15:14;5.50;60.90
29431;DHT22;16404;49.902;10.074;2023-02-11T03:18:01;5.50;61.00
29431;DHT22;16404;49.902;10.074;2023-02-11T03:20:49;5.50;61.10
29431;DHT22;16404;49.902;10.074;2023-02-11T03:23:40;5.60;61.30
29431;DHT22;16404;49.902;10.074;2023-02-11T03:26:43;5.60;61.30
29431;DHT22;16404;49.902;10.074;2023-02-11T03:32:38;5.60;61.30
29431;DHT22;16404;49.902;10.074;2023-02-11T03:35:31;5.60;61.20
29431;DHT22;16404;49.902;10.074;2023-02-11T03:38:37;5.60;61.50
29431;DHT22;16404;49.902;10.074;2023-02-11T03:41:23;5.60;61.50
29431;DHT22;16404;49.902;10.074;2023-02-11T03:44:09;5.70;61.50
29431;DHT22;16404;49.902;10.074;2023-02-11T03:46:57;5.70;61.50
29431;DHT22;16404;49.902;10.074;2023-02-11T03:49:44;5.70;61.40
29431;DHT22;16404;49.902;10.074;2023-02-11T03:52:30;5.70;61.40
29431;DHT22;16404;49.902;10.074;2023-02-11T03:55:18;5.80;61.40
29431;DHT22;16404;49.902;10.074;2023-02-11T03:58:03;5.80;61.30
29431;DHT22;16404;49.902;10.074;2023-02-11T04:00:47;5.80;61.30
29431;DHT22;16404;49.902;10.074;2023-02-11T04:03:32;5.90;61.20
29431;DHT22;16404;49.902;10.074;2023-02-11T04:06:16;5.90;61.20
29431;DHT22;16404;49.902;10.074;2023-02-11T04:09:01;5.90;61.10
29431;DHT22;16404;49.902;10.074;2023-02-11T04:11:45;5.90;61.10
29431;DHT22;16404;49.902;10.074;2023-02-11T04:14:30;5.90;61.20
29431;DHT22;16404;49.902;10.074;2023-02-11T04:17:15;5.80;61.00
29431;DHT22;16404;49.902;10.074;2023-02-11T04:19:59;5.80;61.00
29431;DHT22;16404;49.902;10.074;2023-02-11T04:22:44;5.80;61.10
29431;DHT22;16404;49.902;10.074;2023-02-11T04:25:29;5.70;61.00
29431;DHT22;16404;49.902;10.074;2023-02-11T04:28:13;5.70;61.10
29431;DHT22;16404;49.902;10.074;2023-02-11T04:30:58;5.70;61.30
29431;DHT22;16404;49.902;10.074;2023-02-11T04:33:42;5.60;61.30
29431;DHT22;16404;49.902;10.074;2023-02-11T04:36:27;5.60;61.50
29431;DHT22;16404;49.902;10.074;2023-02-11T04:39:11;5.60;61.70
29431;DHT22;16404;49.902;10.074;2023-02-11T04:41:56;5.60;61.90
29431;DHT22;16404;49.902;10.074;2023-02-11T04:44:40;5.60;62.00
29431;DHT22;16404;49.902;10.074;2023-02-11T04:47:25;5.60;62.10
29431;DHT22;16404;49.902;10.074;2023-02-11T04:50:10;5.60;62.00
29431;DHT22;16404;49.902;10.074;2023-02-11T04:52:54;5.60;62.00
29431;DHT22;16404;49.902;10.074;2023-02-11T04:55:39;5.60;62.10
29431;DHT22;16404;49.902;10.074;2023-02-11T04:58:24;5.70;62.20
29431;DHT22;16404;49.902;10.074;2023-02-11T05:01:10;5.60;62.20
29431;DHT22;16404;49.902;10.074;2023-02-11T05:03:55;5.70;62.20
29431;DHT22;16404;49.902;10.074;2023-02-11T05:06:40;5.70;62.20
29431;DHT22;16404;49.902;10.074;2023-02-11T05:09:24;5.80;62.10
29431;DHT22;16404;49.902;10.074;2023-02-11T05:12:08;5.80;61.70
29431;DHT22;16404;49.902;10.074;2023-02-11T05:14:53;5.70;62.00
29431;DHT22;16404;49.902;10.074;2023-02-11T05:17:38;5.80;62.10
29431;DHT22;16404;49.902;10.074;2023-02-11T05:20:22;5.80;62.10
29431;DHT22;16404;49.902;10.074;2023-02-11T05:23:07;5.70;62.30
29431;DHT22;16404;49.902;10.074;2023-02-11T05:25:51;5.70;62.40
29431;DHT22;16404;49.902;10.074;2023-02-11T05:28:36;5.50;62.80
29431;DHT22;16404;49.902;10.074;2023-02-11T05:31:21;5.40;63.00
29431;DHT22;16404;49.902;10.074;2023-02-11T05:34:05;5.30;63.30
29431;DHT22;16404;49.902;10.074;2023-02-11T05:36:50;5.30;63.50
29431;DHT22;16404;49.902;10.074;2023-02-11T05:39:35;5.40;63.20
29431;DHT22;16404;49.902;10.074;2023-02-11T05:42:19;5.40;63.00
29431;DHT22;16404;49.902;10.074;2023-02-11T05:45:04;5.50;62.90
29431;DHT22;16404;49.902;10.074;2023-02-11T05:47:49;5.50;62.80
29431;DHT22;16404;49.902;10.074;2023-02-11T05:50:34;5.50;62.70
29431;DHT22;16404;49.902;10.074;2023-02-11T05:53:18;5.50;62.60
29431;DHT22;16404;49.902;10.074;2023-02-11T05:56:03;5.50;62.60
29431;DHT22;16404;49.902;10.074;2023-02-11T05:58:48;5.40;62.70
29431;DHT22;16404;49.902;10.074;2023-02-11T06:01:32;5.20;63.30
29431;DHT22;16404;49.902;10.074;2023-02-11T06:04:17;5.00;63.80
29431;DHT22;16404;49.902;10.074;2023-02-11T06:07:02;4.90;64.20
29431;DHT22;16404;49.902;10.074;2023-02-11T06:09:46;5.00;64.50
29431;DHT22;16404;49.902;10.074;2023-02-11T06:12:30;5.00;64.20
29431;DHT22;16404;49.902;10.074;2023-02-11T06:15:15;4.90;64.10
29431;DHT22;16404;49.902;10.074;2023-02-11T06:18:00;4.90;64.50
29431;DHT22;16404;49.902;10.074;2023-02-11T06:20:44;4.80;64.60
29431;DHT22;16404;49.902;10.074;2023-02-11T06:23:29;4.80;64.90
29431;DHT22;16404;49.902;10.074;2023-02-11T06:26:19;4.80;65.00
29431;DHT22;16404;49.902;10.074;2023-02-11T06:29:03;4.80;65.20
29431;DHT22;16404;49.902;10.074;2023-02-11T06:31:48;4.90;65.20
29431;DHT22;16404;49.902;10.074;2023-02-11T06:34:33;4.80;65.30
29431;DHT22;16404;49.902;10.074;2023-02-11T06:37:17;4.80;65.40
29431;DHT22;16404;49.902;10.074;2023-02-11T06:40:02;4.80;65.60
29431;DHT22;16404;49.902;10.074;2023-02-11T06:42:46;4.80;65.80
29431;DHT22;16404;49.902;10.074;2023-02-11T06:45:31;4.80;65.80
29431;DHT22;16404;49.902;10.074;2023-02-11T06:48:16;4.90;65.80
29431;DHT22;16404;49.902;10.074;2023-02-11T06:51:01;4.90;65.90
29431;DHT22;16404;49.902;10.074;2023-02-11T06:53:47;4.90;65.90
29431;DHT22;16404;49.902;10.074;2023-02-11T06:56:32;4.90;66.60
29431;DHT22;16404;49.902;10.074;2023-02-11T06:59:18;5.00;65.80
29431;DHT22;16404;49.902;10.074;2023-02-11T07:02:03;5.00;65.70
29431;DHT22;16404;49.902;10.074;2023-02-11T07:04:48;5.10;65.70
29431;DHT22;16404;49.902;10.074;2023-02-11T07:07:33;5.20;65.60
29431;DHT22;16404;49.902;10.074;2023-02-11T07:10:17;5.30;65.50
29431;DHT22;16404;49.902;10.074;2023-02-11T07:13:02;5.30;65.40
29431;DHT22;16404;49.902;10.074;2023-02-11T07:15:46;5.30;65.40
29431;DHT22;16404;49.902;10.074;2023-02-11T07:18:31;5.50;65.40
29431;DHT22;16404;49.902;10.074;2023-02-11T07:21:18;5.70;65.00
29431;DHT22;16404;49.902;10.074;2023-02-11T07:24:10;5.80;64.60
29431;DHT22;16404;49.902;10.074;2023-02-11T07:26:54;6.00;64.10
29431;DHT22;16404;49.902;10.074;2023-02-11T07:29:40;6.20;63.70
29431;DHT22;16404;49.902;10.074;2023-02-11T07:32:25;6.20;63.50
29431;DHT22;16404;49.902;10.074;2023-02-11T07:35:10;6.10;63.60
29431;DHT22;16404;49.902;10.074;2023-02-11T07:37:54;6.00;64.10
29431;DHT22;16404;49.902;10.074;2023-02-11T07:40:38;6.00;64.40
29431;DHT22;16404;49.902;10.074;2023-02-11T07:43:23;6.20;64.10
29431;DHT22;16404;49.902;10.074;2023-02-11T07:46:14;6.20;64.00
29431;DHT22;16404;49.902;10.074;2023-02-11T07:48:59;6.30;63.80
29431;DHT22;16404;49.902;10.074;2023-02-11T07:51:44;6.40;63.70
29431;DHT22;16404;49.902;10.074;2023-02-11T07:54:29;6.40;63.60
29431;DHT22;16404;49.902;10.074;2023-02-11T07:57:13;6.50;63.50
29431;DHT22;16404;49.902;10.074;2023-02-11T07:59:58;6.70;63.30
29431;DHT22;16404;49.902;10.074;2023-02-11T08:02:43;6.80;62.90
29431;DHT22;16404;49.902;10.074;2023-02-11T08:05:27;6.80;62.70
29431;DHT22;16404;49.902;10.074;2023-02-11T08:08:12;6.80;62.70
29431;DHT22;16404;49.902;10.074;2023-02-11T08:10:57;6.80;62.90
29431;DHT22;16404;49.902;10.074;2023-02-11T08:13:42;6.80;63.10
29431;DHT22;16404;49.902;10.074;2023-02-11T08:16:29;6.80;63.30
29431;DHT22;16404;49.902;10.074;2023-02-11T08:19:15;6.80;63.30
29431;DHT22;16404;49.902;10.074;2023-02-11T08:21:59;6.90;63.20
29431;DHT22;16404;49.902;10.074;2023-02-11T08:24:44;7.10;62.80
29431;DHT22;16404;49.902;10.074;2023-02-11T08:27:29;7.30;62.30
29431;DHT22;16404;49.902;10.074;2023-02-11T08:30:14;7.50;61.80
29431;DHT22;16404;49.902;10.074;2023-02-11T08:32:58;7.50;61.50
29431;DHT22;16404;49.902;10.074;2023-02-11T08:35:43;7.70;61.30
29431;DHT22;16404;49.902;10.074;2023-02-11T08:38:27;7.80;61.30
29431;DHT22;16404;49.902;10.074;2023-02-11T08:41:12;7.90;60.90
29431;DHT22;16404;49.902;10.074;2023-02-11T08:44:00;8.00;60.70
29431;DHT22;16404;49.902;10.074;2023-02-11T08:46:45;8.00;60.60
29431;DHT22;16404;49.902;10.074;2023-02-11T08:49:29;7.90;60.70
29431;DHT22;16404;49.902;10.074;2023-02-11T08:52:15;7.80;60.80
29431;DHT22;16404;49.902;10.074;2023-02-11T08:55:00;7.80;61.40
29431;DHT22;16404;49.902;10.074;2023-02-11T08:57:44;7.80;61.80
29431;DHT22;16404;49.902;10.074;2023-02-11T09:00:29;7.80;61.90
29431;DHT22;16404;49.902;10.074;2023-02-11T09:03:14;7.80;61.90
29431;DHT22;16404;49.902;10.074;2023-02-11T09:05:59;7.90;61.90
29431;DHT22;16404;49.902;10.074;2023-02-11T09:08:46;8.00;61.90
29431;DHT22;16404;49.902;10.074;2023-02-11T09:11:34;8.00;61.70
29431;DHT22;16404;49.902;10.074;2023-02-11T09:14:21;8.10;61.50
29431;DHT22;16404;49.902;10.074;2023-02-11T09:17:06;8.10;61.50
29431;DHT22;16404;49.902;10.074;2023-02-11T09:19:51;8.10;61.50
29431;DHT22;16404;49.902;10.074;2023-02-11T09:22:35;8.20;61.30
29431;DHT22;16404;49.902;10.074;2023-02-11T09:25:20;8.30;61.20
29431;DHT22;16404;49.902;10.074;2023-02-11T09:28:05;8.40;61.10
29431;DHT22;16404;49.902;10.074;2023-02-11T09:30:49;8.50;60.80
29431;DHT22;16404;49.902;10.074;2023-02-11T09:33:35;8.70;60.30
29431;DHT22;16404;49.902;10.074;2023-02-11T09:36:22;8.90;59.80
29431;DHT22;16404;49.902;10.074;2023-02-11T09:39:12;9.10;59.20
29431;DHT22;16404;49.902;10.074;2023-02-11T09:45:28;9.30;58.50
29431;DHT22;16404;49.902;10.074;2023-02-11T09:48:20;9.30;58.30
29431;DHT22;16404;49.902;10.074;2023-02-11T09:51:05;9.30;58.30
29431;DHT22;16404;49.902;10.074;2023-02-11T09:53:59;9.40;58.20
29431;DHT22;16404;49.902;10.074;2023-02-11T09:56:44;9.50;57.90
29431;DHT22;16404;49.902;10.074;2023-02-11T09:59:29;9.60;57.70
29431;DHT22;16404;49.902;10.074;2023-02-11T10:23:18;10.20;57.90
29431;DHT22;16404;49.902;10.074;2023-02-11T10:26:13;10.40;58.10
29431;DHT22;16404;49.902;10.074;2023-02-11T10:29:00;10.50;58.20
29431;DHT22;16404;49.902;10.074;2023-02-11T10:31:45;10.70;58.10
29431;DHT22;16404;49.902;10.074;2023-02-11T10:34:30;10.90;58.00
29431;DHT22;16404;49.902;10.074;2023-02-11T10:37:15;10.90;58.30
29431;DHT22;16404;49.902;10.074;2023-02-11T10:39:59;10.90;58.50
29431;DHT22;16404;49.902;10.074;2023-02-11T10:42:50;11.00;58.60
29431;DHT22;16404;49.902;10.074;2023-02-11T10:48:49;11.20;58.50
29431;DHT22;16404;49.902;10.074;2023-02-11T10:51:35;11.30;58.30
29431;DHT22;16404;49.902;10.074;2023-02-11T10:54:20;11.40;58.40
29431;DHT22;16404;49.902;10.074;2023-02-11T10:57:17;11.50;58.40
29431;DHT22;16404;49.902;10.074;2023-02-11T11:03:19;11.70;58.50
29431;DHT22;16404;49.902;10.074;2023-02-11T11:06:10;11.80;58.60
29431;DHT22;16404;49.902;10.074;2023-02-11T11:08:55;11.80;58.40
29431;DHT22;16404;49.902;10.074;2023-02-11T11:11:50;11.90;58.20
29431;DHT22;16404;49.902;10.074;2023-02-11T11:14:35;12.10;58.10
29431;DHT22;16404;49.902;10.074;2023-02-11T11:17:20;12.20;57.90
29431;DHT22;16404;49.902;10.074;2023-02-11T11:20:22;12.30;57.40
29431;DHT22;16404;49.902;10.074;2023-02-11T11:23:28;12.20;57.20
29431;DHT22;16404;49.902;10.074;2023-02-11T11:26:13;12.20;57.00
29431;DHT22;16404;49.902;10.074;2023-02-11T11:29:01;12.40;57.20
29431;DHT22;16404;49.902;10.074;2023-02-11T11:34:40;12.40;56.60
29431;DHT22;16404;49.902;10.074;2023-02-11T11:43:18;12.40;55.80
29431;DHT22;16404;49.902;10.074;2023-02-11T11:46:03;12.40;55.70
29431;DHT22;16404;49.902;10.074;2023-02-11T11:48:50;12.40;55.60
29431;DHT22;16404;49.902;10.074;2023-02-11T11:51:41;12.50;55.70
29431;DHT22;16404;49.902;10.074;2023-02-11T11:54:30;12.50;55.70
29431;DHT22;16404;49.902;10.074;2023-02-11T11:57:21;12.40;55.40
29431;DHT22;16404;49.902;10.074;2023-02-11T12:00:41;12.30;55.50
29431;DHT22;16404;49.902;10.074;2023-02-11T12:10:28;12.10;56.10
29431;DHT22;16404;49.902;10.074;2023-02-11T12:16:34;11.90;56.00
29431;DHT22;16404;49.902;10.074;2023-02-11T12:22:39;12.00;56.20
29431;DHT22;16404;49.902;10.074;2023-02-11T12:25:37;12.10;55.80
29431;DHT22;16404;49.902;10.074;2023-02-11T12:31:26;12.00;56.00
29431;DHT22;16404;49.902;10.074;2023-02-11T12:40:11;11.90;56.40
29431;DHT22;16404;49.902;10.074;2023-02-11T12:43:21;11.90;56.60
29431;DHT22;16404;49.902;10.074;2023-02-11T12:49:24;12.00;56.10
29431;DHT22;16404;49.902;10.074;2023-02-11T12:55:28;12.20;55.80
29431;DHT22;16404;49.902;10.074;2023-02-11T12:58:20;12.20;56.60
29431;DHT22;16404;49.902;10.074;2023-02-11T13:01:19;12.30;56.40
29431;DHT22;16404;49.902;10.074;2023-02-11T13:04:18;12.30;56.30
29431;DHT22;16404;49.902;10.074;2023-02-11T13:07:12;12.50;56.20
29431;DHT22;16404;49.902;10.074;2023-02-11T13:10:06;12.60;56.10
29431;DHT22;16404;49.902;10.074;2023-02-11T13:12:55;12.60;56.10
29431;DHT22;16404;49.902;10.074;2023-02-11T13:16:05;12.80;56.40
29431;DHT22;16404;49.902;10.074;2023-02-11T13:28:11;12.80;55.80
29431;DHT22;16404;49.902;10.074;2023-02-11T13:30:47;12.90;55.70
29431;DHT22;16404;49.902;10.074;2023-02-11T13:33:41;13.00;55.60
29431;DHT22;16404;49.902;10.074;2023-02-11T13:36:28;13.00;55.50
29431;DHT22;16404;49.902;10.074;2023-02-11T13:39:20;12.90;55.70
29431;DHT22;16404;49.902;10.074;2023-02-11T13:42:05;12.90;55.60
29431;DHT22;16404;49.902;10.074;2023-02-11T13:44:50;12.90;55.70
29431;DHT22;16404;49.902;10.074;2023-02-11T13:47:43;13.00;55.80
29431;DHT22;16404;49.902;10.074;2023-02-11T13:50:28;12.90;55.80
29431;DHT22;16404;49.902;10.074;2023-02-11T13:53:15;12.80;55.90
29431;DHT22;16404;49.902;10.074;2023-02-11T13:56:32;12.70;55.80
29431;DHT22;16404;49.902;10.074;2023-02-11T14:05:31;12.80;55.70
29431;DHT22;16404;49.902;10.074;2023-02-11T14:08:35;12.90;55.30
29431;DHT22;16404;49.902;10.074;2023-02-11T14:14:33;12.70;55.30
29431;DHT22;16404;49.902;10.074;2023-02-11T14:17:27;12.70;55.00
29431;DHT22;16404;49.902;10.074;2023-02-11T14:20:45;12.70;54.90
29431;DHT22;16404;49.902;10.074;2023-02-11T14:23:31;12.70;54.80
29431;DHT22;16404;49.902;10.074;2023-02-11T14:26:27;12.60;54.90
29431;DHT22;16404;49.902;10.074;2023-02-11T14:38:51;12.30;55.30
29431;DHT22;16404;49.902;10.074;2023-02-11T14:41:42;12.20;55.60
29431;DHT22;16404;49.902;10.074;2023-02-11T14:44:29;12.10;55.80
29431;DHT22;16404;49.902;10.074;2023-02-11T14:47:18;12.00;56.20
29431;DHT22;16404;49.902;10.074;2023-02-11T14:50:05;12.00;56.40
29431;DHT22;16404;49.902;10.074;2023-02-11T14:52:51;12.00;56.90
29431;DHT22;16404;49.902;10.074;2023-02-11T14:55:40;12.00;56.30
29431;DHT22;16404;49.902;10.074;2023-02-11T14:58:30;12.00;56.30
29431;DHT22;16404;49.902;10.074;2023-02-11T15:04:36;11.90;56.20
29431;DHT22;16404;49.902;10.074;2023-02-11T15:07:21;11.90;56.30
29431;DHT22;16404;49.902;10.074;2023-02-11T15:10:06;11.90;56.20
29431;DHT22;16404;49.902;10.074;2023-02-11T15:12:51;11.80;56.30
29431;DHT22;16404;49.902;10.074;2023-02-11T15:15:38;11.70;56.40
29431;DHT22;16404;49.902;10.074;2023-02-11T15:18:30;11.60;56.60
29431;DHT22;16404;49.902;10.074;2023-02-11T15:21:35;11.60;56.70
29431;DHT22;16404;49.902;10.074;2023-02-11T15:27:11;11.60;56.60
29431;DHT22;16404;49.902;10.074;2023-02-11T15:29:59;11.60;56.60
29431;DHT22;16404;49.902;10.074;2023-02-11T15:32:43;11.60;56.40
29431;DHT22;16404;49.902;10.074;2023-02-11T15:35:31;11.60;56.40
29431;DHT22;16404;49.902;10.074;2023-02-11T15:38:20;11.60;56.40
29431;DHT22;16404;49.902;10.074;2023-02-11T15:41:06;11.50;56.50
29431;DHT22;16404;49.902;10.074;2023-02-11T15:43:51;11.50;56.70
29431;DHT22;16404;49.902;10.074;2023-02-11T15:46:40;11.50;56.60
29431;DHT22;16404;49.902;10.074;2023-02-11T15:49:25;11.40;56.60
29431;DHT22;16404;49.902;10.074;2023-02-11T15:52:14;11.30;56.90
29431;DHT22;16404;49.902;10.074;2023-02-11T15:55:05;11.20;57.10
29431;DHT22;16404;49.902;10.074;2023-02-11T15:57:58;11.20;57.00
29431;DHT22;16404;49.902;10.074;2023-02-11T16:00:51;11.30;57.00
29431;DHT22;16404;49.902;10.074;2023-02-11T16:03:43;11.20;57.00
29431;DHT22;16404;49.902;10.074;2023-02-11T16:06:40;11.00;57.10
29431;DHT22;16404;49.902;10.074;2023-02-11T16:09:32;11.00;57.50
29431;DHT22;16404;49.902;10.074;2023-02-11T16:12:25;11.00;57.50
29431;DHT22;16404;49.902;10.074;2023-02-11T16:21:15;10.80;57.70
29431;DHT22;16404;49.902;10.074;2023-02-11T16:24:01;10.80;57.70
29431;DHT22;16404;49.902;10.074;2023-02-11T16:26:49;10.60;58.00
29431;DHT22;16404;49.902;10.074;2023-02-11T16:29:35;10.60;58.20
29431;DHT22;16404;49.902;10.074;2023-02-11T16:32:23;10.70;58.10
29431;DHT22;16404;49.902;10.074;2023-02-11T16:35:10;10.80;58.00
29431;DHT22;16404;49.902;10.074;2023-02-11T16:37:55;10.80;57.90
29431;DHT22;16404;49.902;10.074;2023-02-11T16:40:40;10.80;57.90
29431;DHT22;16404;49.902;10.074;2023-02-11T16:43:25;10.80;57.80
29431;DHT22;16404;49.902;10.074;2023-02-11T16:46:13;10.80;57.80
29431;DHT22;16404;49.902;10.074;2023-02-11T16:49:17;10.80;57.70
29431;DHT22;16404;49.902;10.074;2023-02-11T16:52:14;10.80;57.60
29431;DHT22;16404;49.902;10.074;2023-02-11T16:54:59;10.90;57.50
29431;DHT22;16404;49.902;10.074;2023-02-11T16:57:43;11.00;57.30
29431;DHT22;16404;49.902;10.074;2023-02-11T17:00:28;10.90;57.20
29431;DHT22;16404;49.902;10.074;2023-02-11T17:03:20;10.90;57.40
29431;DHT22;16404;49.902;10.074;2023-02-11T17:06:08;10.80;57.70
29431;DHT22;16404;49.902;10.074;2023-02-11T17:08:53;10.80;57.60
29431;DHT22;16404;49.902;10.074;2023-02-11T17:11:38;10.70;57.80
29431;DHT22;16404;49.902;10.074;2023-02-11T17:14:23;10.60;58.00
29431;DHT22;16404;49.902;10.074;2023-02-11T17:17:08;10.60;58.20
29431;DHT22;16404;49.902;10.074;2023-02-11T17:19:53;10.40;58.40
29431;DHT22;16404;49.902;10.074;2023-02-11T17:22:37;10.30;58.60
29431;DHT22;16404;49.902;10.074;2023-02-11T17:25:22;10.30;58.70
29431;DHT22;16404;49.902;10.074;2023-02-11T17:28:08;10.40;58.60
29431;DHT22;16404;49.902;10.074;2023-02-11T17:30:53;10.30;58.40
29431;DHT22;16404;49.902;10.074;2023-02-11T17:33:37;10.40;58.40
29431;DHT22;16404;49.902;10.074;2023-02-11T17:36:22;10.40;58.20
29431;DHT22;16404;49.902;10.074;2023-02-11T17:39:06;10.30;58.40
29431;DHT22;16404;49.902;10.074;2023-02-11T17:41:51;10.30;59.20
29431;DHT22;16404;49.902;10.074;2023-02-11T17:44:36;10.30;58.80
29431;DHT22;16404;49.902;10.074;2023-02-11T17:47:21;10.30;58.80
29431;DHT22;16404;49.902;10.074;2023-02-11T17:50:06;10.20;58.90
29431;DHT22;16404;49.902;10.074;2023-02-11T17:52:51;10.20;59.00
29431;DHT22;16404;49.902;10.074;2023-02-11T17:55:35;10.20;59.10
29431;DHT22;16404;49.902;10.074;2023-02-11T17:58:21;10.20;59.80
29431;DHT22;16404;49.902;10.074;2023-02-11T18:01:06;10.20;59.20
29431;DHT22;16404;49.902;10.074;2023-02-11T18:03:51;10.10;59.30
29431;DHT22;16404;49.902;10.074;2023-02-11T18:06:35;10.00;59.50
29431;DHT22;16404;49.902;10.074;2023-02-11T18:09:20;9.90;59.60
29431;DHT22;16404;49.902;10.074;2023-02-11T18:12:05;9.90;59.80
29431;DHT22;16404;49.902;10.074;2023-02-11T18:14:51;9.80;59.80
29431;DHT22;16404;49.902;10.074;2023-02-11T18:17:38;10.00;59.80
29431;DHT22;16404;49.902;10.074;2023-02-11T18:20:23;10.00;59.50
29431;DHT22;16404;49.902;10.074;2023-02-11T18:23:09;10.10;59.30
29431;DHT22;16404;49.902;10.074;2023-02-11T18:25:53;10.10;59.20
29431;DHT22;16404;49.902;10.074;2023-02-11T18:28:39;10.10;59.10
29431;DHT22;16404;49.902;10.074;2023-02-11T18:31:24;10.20;59.10
29431;DHT22;16404;49.902;10.074;2023-02-11T18:34:10;10.20;58.90
29431;DHT22;16404;49.902;10.074;2023-02-11T18:36:54;10.20;58.80
29431;DHT22;16404;49.902;10.074;2023-02-11T18:39:39;10.10;58.80
29431;DHT22;16404;49.902;10.074;2023-02-11T18:42:24;10.00;59.00
29431;DHT22;16404;49.902;10.074;2023-02-11T18:45:11;10.00;59.10
29431;DHT22;16404;49.902;10.074;2023-02-11T18:47:56;10.00;59.10
29431;DHT22;16404;49.902;10.074;2023-02-11T18:50:41;9.90;59.10
29431;DHT22;16404;49.902;10.074;2023-02-11T18:53:27;9.90;59.30
29431;DHT22;16404;49.902;10.074;2023-02-11T18:56:15;9.90;59.30
29431;DHT22;16404;49.902;10.074;2023-02-11T18:58:59;9.90;59.40
29431;DHT22;16404;49.902;10.074;2023-02-11T19:01:44;9.90;59.70
29431;DHT22;16404;49.902;10.074;2023-02-11T19:04:30;9.90;59.80
29431;DHT22;16404;49.902;10.074;2023-02-11T19:07:14;9.90;59.80
29431;DHT22;16404;49.902;10.074;2023-02-11T19:09:59;9.90;59.80
29431;DHT22;16404;49.902;10.074;2023-02-11T19:12:43;9.90;59.80
29431;DHT22;16404;49.902;10.074;2023-02-11T19:15:28;9.90;59.90
29431;DHT22;16404;49.902;10.074;2023-02-11T19:18:14;9.90;59.80
29431;DHT22;16404;49.902;10.074;2023-02-11T19:20:58;9.90;59.80
29431;DHT22;16404;49.902;10.074;2023-02-11T19:23:43;9.90;59.70
29431;DHT22;16404;49.902;10.074;2023-02-11T19:26:28;10.00;59.70
29431;DHT22;16404;49.902;10.074;2023-02-11T19:29:13;10.00;59.60
29431;DHT22;16404;49.902;10.074;2023-02-11T19:31:57;10.00;59.50
29431;DHT22;16404;49.902;10.074;2023-02-11T19:34:42;9.90;59.50
29431;DHT22;16404;49.902;10.074;2023-02-11T19:37:26;9.90;59.60
29431;DHT22;16404;49.902;10.074;2023-02-11T19:40:12;9.90;59.60
29431;DHT22;16404;49.902;10.074;2023-02-11T19:42:58;9.90;59.60
29431;DHT22;16404;49.902;10.074;2023-02-11T19:45:43;9.90;59.60
29431;DHT22;16404;49.902;10.074;2023-02-11T19:48:28;9.90;59.70
29431;DHT22;16404;49.902;10.074;2023-02-11T19:51:14;9.90;59.70
29431;DHT22;16404;49.902;10.074;2023-02-11T19:53:59;9.90;59.70